Fabian Garcia SC Data

Date Time Air Temperature Relative Humidity Dewpoint Heat Index Wind Speed Wind Dir. Rain Solar Radiation Soil Temperature
2m 2m 3m 3m 10cm
US/Mountain F % F F MPH deg in MJ/m^2 F
max avg avg
2021-06-11 00:05:00 72.6 19.9 29.1 72.6 0.0 0.0 0.0 208.7 0.0 0.00 0.0000000 80.9
2021-06-11 00:10:00 71.7 20.5 29.1 71.7 0.0 0.0 0.0 215.4 0.0 0.00 0.0000000 80.8
2021-06-11 00:15:00 71.7 21.4 30.1 71.7 0.0 0.0 0.0 198.5 0.0 0.00 0.0000000 80.7
2021-06-11 00:20:00 71.6 21.3 29.9 71.6 0.0 0.0 0.0 185.8 0.0 0.00 0.0000020 80.7
2021-06-11 00:25:00 71.5 23.1 31.8 71.5 0.0 0.0 0.0 187.5 0.0 0.00 0.0000061 80.6
2021-06-11 00:30:00 70.8 21.3 29.2 70.8 0.0 0.0 0.0 221.9 0.0 0.00 0.0000000 80.5
2021-06-11 00:35:00 70.5 22.0 29.8 70.5 0.0 0.0 0.0 215.6 0.0 0.00 0.0000101 80.5
2021-06-11 00:40:00 70.1 21.8 29.2 70.1 0.0 0.0 0.0 216.2 0.0 0.00 0.0000162 80.4
2021-06-11 00:45:00 69.2 24.0 30.8 69.2 0.0 0.0 0.0 195.8 0.0 0.00 0.0000101 80.3
2021-06-11 00:50:00 69.4 22.5 29.5 69.4 0.0 0.0 0.0 164.8 0.0 0.00 0.0000141 80.2
2021-06-11 00:55:00 69.2 23.3 30.1 69.2 0.0 0.0 0.0 188.8 0.0 0.00 0.0000202 80.2
2021-06-11 01:00:00 68.8 23.3 29.9 68.8 0.0 0.0 0.0 164.4 0.0 0.00 0.0000283 80.2
2021-06-11 01:05:00 68.8 23.7 30.2 68.8 0.0 0.0 0.0 179.9 0.0 0.00 0.0000303 80.1
2021-06-11 01:10:00 68.4 24.0 30.2 68.4 0.0 0.0 0.0 224.1 0.0 0.00 0.0000222 80.0
2021-06-11 01:15:00 68.5 26.2 32.5 68.5 0.0 0.0 0.0 201.9 0.0 0.00 0.0000081 80.0
2021-06-11 01:20:00 68.7 25.7 32.1 68.7 0.0 0.0 0.0 176.9 0.0 0.00 0.0000081 79.9
2021-06-11 01:25:00 68.4 26.9 33.0 68.4 0.0 0.0 0.0 164.8 0.0 0.00 0.0000020 79.8
2021-06-11 01:30:00 68.5 28.3 34.3 68.5 0.0 0.0 0.0 189.6 0.0 0.00 0.0000000 79.7
2021-06-11 01:35:00 67.9 28.8 34.3 67.9 0.0 0.0 0.0 187.7 0.0 0.00 0.0000000 79.7
2021-06-11 01:40:00 67.6 29.4 34.6 67.6 0.0 0.0 0.0 183.2 0.0 0.00 0.0000020 79.6
2021-06-11 01:45:00 67.4 30.2 35.1 67.4 0.0 0.0 0.0 207.1 0.0 0.00 0.0000000 79.6
2021-06-11 01:50:00 67.2 31.2 35.6 67.2 0.0 0.0 0.0 185.2 0.0 0.00 0.0000000 79.5
2021-06-11 01:55:00 67.0 32.3 36.4 67.0 0.0 0.0 0.0 170.0 0.0 0.00 0.0000000 79.4
2021-06-11 02:00:00 66.7 32.3 36.1 66.7 0.0 0.8 0.0 136.8 159.9 0.00 0.0000000 79.4
2021-06-11 02:05:00 66.7 30.6 34.8 66.7 0.0 0.0 0.0 165.7 0.0 0.00 0.0000000 79.3
2021-06-11 02:10:00 66.8 30.0 34.3 66.8 0.0 0.0 0.0 138.7 0.0 0.00 0.0000000 79.3
2021-06-11 02:15:00 66.5 28.8 33.1 66.5 0.0 0.0 0.0 174.0 0.0 0.00 0.0000000 79.2
2021-06-11 02:20:00 66.5 26.6 31.2 66.5 0.0 0.0 0.0 175.4 0.0 0.00 0.0000000 79.1
2021-06-11 02:25:00 66.7 29.5 33.8 66.7 0.0 0.0 0.0 217.7 0.0 0.00 0.0000000 79.1
2021-06-11 02:30:00 66.1 28.5 32.5 66.1 0.0 0.0 0.0 232.3 0.0 0.00 0.0000000 79.0
2021-06-11 02:35:00 66.0 29.7 33.4 66.0 0.0 0.0 0.0 221.8 0.0 0.00 0.0000000 79.0
2021-06-11 02:40:00 65.8 31.3 34.5 65.8 0.0 0.0 0.0 232.0 0.0 0.00 0.0000000 78.9
2021-06-11 02:45:00 65.4 30.7 33.7 65.4 0.0 0.0 0.0 232.2 0.0 0.00 0.0000000 78.8
2021-06-11 02:50:00 65.2 32.7 35.2 65.2 0.0 0.0 0.0 174.1 0.0 0.00 0.0000000 78.8
2021-06-11 02:55:00 65.0 31.8 34.3 65.0 0.0 0.0 0.0 161.9 0.0 0.00 0.0000000 78.7
2021-06-11 03:00:00 64.9 31.6 34.0 64.9 0.0 0.0 0.0 189.2 0.0 0.00 0.0000000 78.6
2021-06-11 03:05:00 64.9 31.0 33.5 64.9 0.0 0.0 0.0 208.2 0.0 0.00 0.0000000 78.6
2021-06-11 03:10:00 65.0 31.9 34.3 65.0 0.0 0.0 0.0 136.3 0.0 0.00 0.0000000 78.5
2021-06-11 03:15:00 65.2 34.1 36.2 65.2 0.0 0.0 0.0 157.8 0.0 0.00 0.0000000 78.5
2021-06-11 03:20:00 65.3 34.6 36.6 65.3 0.0 0.0 0.0 146.9 0.0 0.00 0.0000000 78.4
2021-06-11 03:25:00 64.8 34.5 36.1 64.8 0.0 0.0 0.0 193.3 0.0 0.00 0.0000000 78.4
2021-06-11 03:30:00 64.8 33.6 35.4 64.8 0.0 0.0 0.0 205.3 0.0 0.00 0.0000000 78.3
2021-06-11 03:35:00 64.5 29.7 32.1 64.5 0.0 0.0 0.0 272.7 0.0 0.00 0.0000000 78.3
2021-06-11 03:40:00 64.8 29.3 32.0 64.8 0.0 0.0 0.0 257.1 0.0 0.00 0.0000000 78.2
2021-06-11 03:45:00 65.0 29.0 31.9 65.0 0.0 0.0 0.0 264.1 0.0 0.00 0.0000000 78.2
2021-06-11 03:50:00 64.4 27.5 30.1 64.4 0.0 0.0 0.0 290.3 0.0 0.00 0.0000000 78.1
2021-06-11 03:55:00 65.4 24.5 28.1 65.4 0.0 0.0 0.0 275.2 0.0 0.00 0.0000000 78.0
2021-06-11 04:00:00 66.0 26.0 30.2 66.0 0.0 0.0 0.0 283.5 0.0 0.00 0.0000000 78.0
2021-06-11 04:05:00 65.7 24.8 28.7 65.7 0.0 0.0 0.0 227.6 0.0 0.00 0.0000000 77.9
2021-06-11 04:10:00 66.6 24.1 28.8 66.6 0.0 0.0 0.0 290.5 0.0 0.00 0.0000000 77.9
2021-06-11 04:15:00 68.0 23.0 28.9 68.0 1.0 5.1 2.5 335.1 325.1 0.00 0.0000000 77.8
2021-06-11 04:20:00 67.9 23.2 29.0 67.9 0.8 1.0 0.1 275.8 279.3 0.00 0.0000000 77.8
2021-06-11 04:25:00 67.6 22.9 28.4 67.6 0.8 2.1 0.5 251.3 246.8 0.00 0.0000000 77.7
2021-06-11 04:30:00 67.5 22.8 28.2 67.5 1.0 1.0 0.2 248.4 239.0 0.00 0.0000000 77.7
2021-06-11 04:35:00 67.1 23.2 28.3 67.1 2.4 2.8 2.2 244.1 229.4 0.00 0.0000000 77.6
2021-06-11 04:40:00 66.3 24.8 29.2 66.3 2.1 2.8 2.6 263.2 254.1 0.00 0.0000000 77.6
2021-06-11 04:45:00 65.9 25.2 29.3 65.9 2.1 3.1 2.3 263.5 261.1 0.00 0.0000000 77.5
2021-06-11 04:50:00 65.6 26.6 30.3 65.6 2.4 2.4 2.0 262.0 256.4 0.00 0.0000000 77.5
2021-06-11 04:55:00 65.0 28.8 31.8 65.0 1.9 3.0 2.3 250.5 251.4 0.00 0.0000000 77.4
2021-06-11 05:00:00 64.4 29.2 31.6 64.4 1.2 3.0 1.6 242.4 242.6 0.00 0.0000000 77.4
2021-06-11 05:05:00 64.2 29.2 31.5 64.2 1.7 3.0 2.1 239.8 243.7 0.00 0.0000000 77.3
2021-06-11 05:10:00 64.0 29.9 31.9 64.0 0.0 1.2 0.1 259.1 249.3 0.00 0.0000000 77.3
2021-06-11 05:15:00 64.1 29.4 31.5 64.1 0.0 2.2 1.1 267.6 267.4 0.00 0.0000000 77.2
2021-06-11 05:20:00 64.0 29.3 31.3 64.0 0.0 1.0 0.3 264.7 256.2 0.00 0.0000000 77.2
2021-06-11 05:25:00 63.9 30.6 32.4 63.9 0.0 0.0 0.0 277.4 0.0 0.00 0.0000000 77.1
2021-06-11 05:30:00 63.6 31.7 33.0 63.6 0.0 0.0 0.0 260.5 0.0 0.00 0.0000000 77.1
2021-06-11 05:35:00 63.7 30.6 32.2 63.7 0.0 0.0 0.0 251.5 0.0 0.00 0.0000000 77.0
2021-06-11 05:40:00 63.9 30.7 32.5 63.9 0.0 0.0 0.0 245.0 0.0 0.00 0.0000141 76.9
2021-06-11 05:45:00 63.9 31.4 33.0 63.9 0.0 0.8 0.0 253.3 253.7 0.00 0.0001293 76.9
2021-06-11 05:50:00 64.1 30.5 32.4 64.1 2.6 3.5 1.0 253.8 250.2 0.00 0.0003051 76.9
2021-06-11 05:55:00 64.4 29.7 32.0 64.4 2.1 3.7 2.8 239.7 251.9 0.00 0.0005699 76.8
2021-06-11 06:00:00 64.9 26.3 29.5 64.9 0.8 2.6 1.7 254.8 253.8 0.00 0.0010044 76.8
2021-06-11 06:05:00 64.9 28.9 31.8 64.9 0.0 0.8 0.0 243.3 242.7 0.00 0.0016813 76.7
2021-06-11 06:10:00 64.9 28.1 31.1 64.9 0.0 0.0 0.0 248.6 0.0 0.00 0.0025605 76.7
2021-06-11 06:15:00 64.6 27.2 30.1 64.6 0.0 0.8 0.0 270.0 284.4 0.00 0.0035264 76.6
2021-06-11 06:20:00 64.9 23.8 27.0 64.9 0.0 0.0 0.0 273.0 0.0 0.00 0.0044762 76.6
2021-06-11 06:25:00 65.5 23.1 26.7 65.5 0.0 0.0 0.0 93.3 0.0 0.00 0.0083583 76.5
2021-06-11 06:30:00 65.8 22.7 26.6 65.8 0.0 0.0 0.0 174.2 0.0 0.00 0.0130869 76.5
2021-06-11 06:35:00 66.4 22.1 26.5 66.4 0.0 0.0 0.0 2.3 0.0 0.00 0.0176660 76.4
2021-06-11 06:40:00 67.0 20.6 25.3 67.0 3.0 3.5 1.3 341.9 339.3 0.00 0.0224919 76.4
2021-06-11 06:45:00 67.6 22.5 27.9 67.6 0.0 3.3 1.2 261.8 324.7 0.00 0.0274935 76.4
2021-06-11 06:50:00 67.6 21.3 26.6 67.6 0.0 1.0 0.2 272.1 263.0 0.00 0.0326299 76.3
2021-06-11 06:55:00 67.6 24.5 30.0 67.6 0.0 0.8 0.0 45.8 256.1 0.00 0.0377059 76.3
2021-06-11 07:00:00 68.3 23.8 29.9 68.3 0.0 1.0 0.1 234.6 302.6 0.00 0.0421264 76.2
2021-06-11 07:05:00 69.6 16.6 22.2 69.6 3.3 5.8 3.0 338.6 325.9 0.00 0.0459615 76.2
2021-06-11 07:10:00 70.4 15.7 21.6 70.4 2.8 5.3 3.3 302.8 329.2 0.00 0.0501896 76.2
2021-06-11 07:15:00 71.3 16.9 24.0 71.3 0.0 3.0 1.2 257.3 312.5 0.00 0.0546216 76.1
2021-06-11 07:20:00 71.6 14.7 21.1 71.6 2.4 2.4 0.2 329.3 323.4 0.00 0.0592325 76.1
2021-06-11 07:25:00 72.3 19.0 27.7 72.3 0.0 4.9 2.1 300.4 326.5 0.00 0.0642237 76.1
2021-06-11 07:30:00 72.8 15.5 23.1 72.8 0.0 0.0 0.0 131.1 0.0 0.00 0.0689656 76.0
2021-06-11 07:35:00 73.3 14.1 21.3 73.3 0.8 0.8 0.0 328.8 328.8 0.00 0.0739506 76.0
2021-06-11 07:40:00 74.2 18.2 28.2 74.2 0.0 1.2 0.1 259.0 331.3 0.00 0.0789332 76.0
2021-06-11 07:45:00 73.5 18.8 28.5 73.5 2.6 2.8 0.5 268.1 233.7 0.00 0.0840470 75.9
2021-06-11 07:50:00 73.2 17.8 26.9 73.2 2.8 3.1 2.3 247.8 245.3 0.00 0.0890686 75.9
2021-06-11 07:55:00 73.2 16.5 25.1 73.2 4.0 4.6 3.5 257.4 255.5 0.00 0.0939195 75.9
2021-06-11 08:00:00 73.7 16.6 25.6 73.7 1.9 4.2 2.7 243.6 254.6 0.00 0.0992194 75.8
2021-06-11 08:05:00 74.4 16.2 25.6 74.4 0.8 3.0 1.2 263.4 259.8 0.00 0.1042883 75.8
2021-06-11 08:10:00 75.3 15.1 24.6 75.3 1.5 3.3 1.5 276.5 269.9 0.00 0.1089253 75.8
2021-06-11 08:15:00 76.7 12.5 21.3 76.7 4.2 6.2 3.0 3.9 325.6 0.00 0.1140948 75.8
2021-06-11 08:20:00 77.3 12.1 20.9 77.3 6.7 6.7 4.0 310.1 339.0 0.00 0.1194651 75.8
2021-06-11 08:25:00 78.1 12.0 21.3 78.1 3.5 5.6 3.2 316.2 330.8 0.00 0.1246589 75.8
2021-06-11 08:30:00 79.0 12.5 23.1 79.0 3.3 5.8 3.7 282.1 335.2 0.00 0.1301087 75.7
2021-06-11 08:35:00 80.0 11.6 21.9 80.0 2.4 4.2 2.5 267.3 306.2 0.00 0.1351324 75.7
2021-06-11 08:40:00 79.9 10.9 20.5 79.9 3.3 4.2 3.0 336.9 276.5 0.00 0.1402676 75.7
2021-06-11 08:45:00 80.2 11.7 22.2 80.2 2.4 5.5 3.1 278.6 291.1 0.00 0.1449575 75.7
2021-06-11 08:50:00 81.1 11.8 23.3 81.1 2.4 4.6 2.7 314.2 299.3 0.00 0.1499925 75.7
2021-06-11 08:55:00 82.2 10.5 21.4 82.2 4.2 7.1 3.5 2.6 316.2 0.00 0.1551735 75.7
2021-06-11 09:00:00 83.3 11.2 23.8 83.3 1.5 7.2 3.3 262.6 302.8 0.00 0.1599459 75.7
2021-06-11 09:05:00 83.5 11.6 24.7 83.5 2.6 8.0 3.5 258.2 299.1 0.00 0.1597409 75.7
2021-06-11 09:10:00 83.8 10.8 23.3 83.8 6.9 6.9 3.5 308.2 306.3 0.00 0.1694330 75.7
2021-06-11 09:15:00 84.8 10.7 23.7 84.8 2.6 6.2 3.6 37.9 299.8 0.00 0.1740386 75.7
2021-06-11 09:20:00 85.0 11.5 25.7 85.0 2.4 7.1 3.5 270.5 297.0 0.00 0.1788975 75.7
2021-06-11 09:25:00 85.6 10.6 24.2 85.6 2.2 7.2 3.7 40.6 325.7 0.00 0.1840053 75.7
2021-06-11 09:30:00 86.9 9.5 22.7 86.9 5.1 7.2 4.1 341.0 322.4 0.00 0.1890333 75.8
2021-06-11 09:35:00 86.8 10.1 23.9 86.8 6.9 9.2 6.3 328.4 349.4 0.00 0.1822975 75.8
2021-06-11 09:40:00 87.0 10.3 24.5 87.0 5.6 8.0 5.1 29.9 330.9 0.00 0.1860264 75.8
2021-06-11 09:45:00 87.7 10.4 25.3 87.7 7.8 8.7 6.2 336.9 343.3 0.00 0.2027488 75.8
2021-06-11 09:50:00 87.4 9.9 23.9 87.4 5.6 9.0 6.0 2.7 331.7 0.00 0.2063502 75.9
2021-06-11 09:55:00 88.8 10.1 25.3 88.8 1.9 6.3 3.8 316.0 313.6 0.00 0.2087168 75.9
2021-06-11 10:00:00 88.5 9.1 22.7 88.5 4.2 9.4 6.3 332.4 331.5 0.00 0.2125125 75.9
2021-06-11 10:05:00 89.9 8.7 22.7 89.9 7.2 8.7 4.9 330.9 318.5 0.00 0.2195245 76.0
2021-06-11 10:10:00 89.6 8.7 22.4 89.6 5.3 8.1 6.0 338.1 341.1 0.00 0.2242019 76.1
2021-06-11 10:15:00 90.3 7.6 19.8 90.3 4.4 8.8 5.7 0.3 0.4 0.00 0.2159853 76.1
2021-06-11 10:20:00 89.9 8.5 22.2 89.9 6.3 8.3 6.5 1.8 1.9 0.00 0.2317383 76.2
2021-06-11 10:25:00 90.9 7.5 20.0 90.9 4.6 6.5 4.4 261.2 346.4 0.00 0.2323597 76.2
2021-06-11 10:30:00 91.3 8.0 21.8 91.3 4.4 5.5 2.9 253.8 281.4 0.00 0.2349850 76.3
2021-06-11 10:35:00 91.3 7.9 21.5 91.3 3.0 5.5 3.3 337.9 278.7 0.00 0.2409874 76.4
2021-06-11 10:40:00 92.8 7.1 20.2 92.8 5.8 7.4 3.3 4.5 319.1 0.00 0.2443256 76.5
2021-06-11 10:45:00 92.9 7.8 22.5 92.9 3.0 4.7 3.5 13.1 322.2 0.00 0.2477321 76.6
2021-06-11 10:50:00 92.8 7.1 20.0 92.8 3.0 7.2 3.5 253.3 308.8 0.00 0.2509483 76.7
2021-06-11 10:55:00 92.3 7.5 21.1 92.3 5.8 5.8 2.6 279.0 240.2 0.00 0.2541080 76.8
2021-06-11 11:00:00 92.1 7.6 21.1 92.1 4.9 4.9 3.5 43.5 258.9 0.00 0.2571220 76.9
2021-06-11 11:05:00 93.3 7.5 21.7 93.3 2.6 6.3 4.5 3.2 349.1 0.00 0.2601492 77.0
2021-06-11 11:10:00 93.1 7.2 20.6 93.1 2.1 3.5 2.3 124.6 208.3 0.00 0.2618074 77.1
2021-06-11 11:15:00 93.9 7.4 21.9 93.9 3.1 3.7 2.2 204.3 217.9 0.00 0.2650696 77.2
2021-06-11 11:20:00 94.1 7.2 21.4 94.1 3.8 3.8 1.8 335.9 248.4 0.00 0.2673993 77.4
2021-06-11 11:25:00 94.4 6.8 20.4 94.4 2.4 4.6 3.2 161.6 80.4 0.00 0.2704840 77.5
2021-06-11 11:30:00 94.7 7.1 21.4 94.7 3.1 6.7 4.1 58.7 18.1 0.00 0.2726232 77.6
2021-06-11 11:35:00 94.8 6.4 19.0 94.8 2.4 5.3 2.7 44.9 46.5 0.00 0.2757181 77.8
2021-06-11 11:40:00 95.3 6.4 19.5 95.3 0.0 3.1 1.7 193.9 78.0 0.00 0.2777747 77.9
2021-06-11 11:45:00 95.8 7.7 24.2 95.8 1.2 3.5 2.0 68.3 144.8 0.00 0.2799620 78.0
2021-06-11 11:50:00 96.4 7.1 22.6 96.4 4.6 6.7 4.2 38.9 24.1 0.00 0.2818367 78.2
2021-06-11 11:55:00 95.3 6.6 20.0 95.3 3.8 8.5 5.1 106.6 76.1 0.00 0.2810940 78.4
2021-06-11 12:00:00 96.7 6.5 20.8 96.7 3.3 5.3 3.2 61.1 89.6 0.00 0.2826989 78.5
2021-06-11 12:05:00 97.2 6.4 20.8 97.2 3.0 5.5 3.6 129.1 109.5 0.00 0.2843640 78.7
2021-06-11 12:10:00 97.7 10.0 32.1 97.7 0.0 3.3 1.1 242.2 106.5 0.00 0.2856003 78.9
2021-06-11 12:15:00 98.5 7.7 26.1 98.5 5.5 5.5 1.4 314.5 202.3 0.00 0.2875079 79.0
2021-06-11 12:20:00 98.2 8.8 29.1 98.2 4.7 6.7 3.6 258.5 246.0 0.00 0.2898425 79.2
2021-06-11 12:25:00 97.4 7.0 23.1 97.4 5.6 10.6 4.7 150.0 174.0 0.00 0.2895209 79.4
2021-06-11 12:30:00 98.0 6.7 22.6 98.0 2.2 5.8 3.4 215.3 150.6 0.00 0.2914287 79.6
2021-06-11 12:35:00 96.8 7.8 25.2 96.8 5.8 8.7 4.9 234.7 201.5 0.00 0.2914327 79.7
2021-06-11 12:40:00 96.2 6.8 21.7 96.2 6.3 9.0 5.5 336.6 261.1 0.00 0.2908977 79.9
2021-06-11 12:45:00 97.4 6.2 20.3 97.4 4.9 8.5 5.6 0.1 344.2 0.00 0.2910622 80.1
2021-06-11 12:50:00 97.7 7.3 24.2 97.7 5.8 5.8 3.4 198.5 207.3 0.00 0.2934092 80.3
2021-06-11 12:55:00 96.4 7.5 23.9 96.4 0.0 7.8 4.5 294.3 213.5 0.00 0.2949646 80.4
2021-06-11 13:00:00 97.0 6.7 21.7 97.0 6.5 6.7 3.5 28.9 36.1 0.00 0.2951792 80.6
2021-06-11 13:05:00 98.1 7.1 23.8 98.1 2.6 6.9 3.8 145.6 37.4 0.00 0.2966024 80.7
2021-06-11 13:10:00 97.2 7.1 23.4 97.2 6.3 9.7 5.0 149.6 181.6 0.00 0.2980631 80.9
2021-06-11 13:15:00 96.7 9.1 28.9 96.7 4.6 8.8 5.5 204.9 221.1 0.00 0.2956172 81.1
2021-06-11 13:20:00 97.6 7.2 23.9 97.6 2.1 8.1 3.2 114.8 180.0 0.00 0.2935300 81.2
2021-06-11 13:25:00 98.0 7.0 23.4 98.0 6.7 6.9 3.4 292.7 222.7 0.00 0.2837827 81.4
2021-06-11 13:30:00 98.2 6.5 22.0 98.2 4.2 7.2 3.7 10.5 281.0 0.00 0.2960109 81.5
2021-06-11 13:35:00 99.7 7.6 26.9 99.7 6.0 6.5 2.8 219.3 264.2 0.00 0.2932183 81.6
2021-06-11 13:40:00 99.0 7.4 25.5 99.0 4.2 6.5 4.3 114.7 213.5 0.00 0.2882676 81.8
2021-06-11 13:45:00 100.0 8.6 29.9 100.0 7.2 8.7 4.8 199.5 143.9 0.00 0.3023175 81.9
2021-06-11 13:50:00 98.8 7.5 25.7 98.8 1.7 7.8 3.9 215.1 210.5 0.00 0.2649702 82.0
2021-06-11 13:55:00 98.8 7.2 24.8 98.8 5.3 7.6 3.4 101.1 224.5 0.00 0.2615397 82.1
2021-06-11 14:00:00 100.0 6.7 24.0 100.0 3.5 7.6 5.1 115.1 111.1 0.00 0.2869405 82.3
2021-06-11 14:05:00 100.3 8.0 28.4 100.3 1.7 6.9 4.6 139.8 164.9 0.00 0.2914790 82.4
2021-06-11 14:10:00 100.4 9.4 32.4 100.4 3.8 6.9 3.5 256.3 212.8 0.00 0.2815239 82.5
2021-06-11 14:15:00 99.7 8.4 29.0 99.7 1.2 7.4 5.0 77.3 211.4 0.00 0.2867294 82.7
2021-06-11 14:20:00 99.4 7.1 24.9 99.4 5.8 8.1 4.2 143.2 211.5 0.00 0.2850529 82.8
2021-06-11 14:25:00 99.6 7.9 27.7 99.6 1.2 5.6 3.0 138.7 197.8 0.00 0.2847671 82.9
2021-06-11 14:30:00 100.9 5.9 21.5 100.9 4.7 4.7 2.6 81.1 104.3 0.00 0.2830304 83.0
2021-06-11 14:35:00 100.9 6.2 22.8 100.9 3.8 6.3 3.9 129.6 169.5 0.00 0.2742022 83.2
2021-06-11 14:40:00 100.5 7.0 25.4 100.5 4.6 7.8 5.2 190.4 160.4 0.00 0.2776136 83.3
2021-06-11 14:45:00 102.3 6.7 25.6 102.3 4.7 7.6 4.2 155.9 147.1 0.00 0.2761236 83.5
2021-06-11 14:50:00 101.2 7.8 28.5 101.2 6.3 11.3 6.6 204.2 191.6 0.00 0.2737991 83.6
2021-06-11 14:55:00 100.5 6.5 23.5 100.5 4.4 7.6 4.6 219.0 203.9 0.00 0.2707002 83.7
2021-06-11 15:00:00 99.7 6.7 23.7 99.7 5.8 8.5 5.3 174.8 234.4 0.00 0.2680128 83.9
2021-06-11 15:05:00 100.6 6.5 23.7 100.6 6.5 7.2 4.6 201.6 197.0 0.00 0.2654474 84.1
2021-06-11 15:10:00 100.7 6.3 22.8 100.7 5.5 6.7 4.9 158.6 197.2 0.00 0.2629571 84.2
2021-06-11 15:15:00 100.5 10.0 34.1 100.5 1.3 9.4 5.4 204.1 226.0 0.00 0.2602992 84.3
2021-06-11 15:20:00 101.8 7.2 27.1 101.8 0.0 3.3 1.3 202.3 151.2 0.00 0.2576101 84.4
2021-06-11 15:25:00 101.2 7.2 26.7 101.2 5.5 6.9 4.2 201.0 209.8 0.00 0.2557738 84.5
2021-06-11 15:30:00 100.6 6.0 21.7 100.6 0.0 7.8 4.2 209.6 204.6 0.00 0.2521515 84.7
2021-06-11 15:35:00 102.0 6.2 23.5 102.0 4.6 6.9 3.0 201.9 174.5 0.00 0.2490723 84.8
2021-06-11 15:40:00 102.1 5.9 22.4 102.1 5.5 5.5 3.3 42.0 134.2 0.00 0.2454049 84.9
2021-06-11 15:45:00 102.0 6.9 26.2 102.0 5.5 7.1 3.9 191.2 56.1 0.00 0.2417200 85.0
2021-06-11 15:50:00 102.0 11.2 38.0 102.0 2.6 6.3 3.9 241.8 201.6 0.00 0.2326445 85.1
2021-06-11 15:55:00 101.2 7.7 28.3 101.2 4.4 7.2 4.9 221.0 228.2 0.00 0.2341176 85.2
2021-06-11 16:00:00 101.2 6.5 24.1 101.2 5.3 5.3 2.7 200.6 239.8 0.00 0.2172892 85.3
2021-06-11 16:05:00 102.2 6.4 24.4 102.2 1.7 7.4 2.9 298.1 213.3 0.00 0.2220365 85.4
2021-06-11 16:10:00 102.1 8.8 32.1 102.1 1.5 7.2 3.3 280.4 226.6 0.00 0.2211371 85.5
2021-06-11 16:15:00 102.0 6.7 25.2 102.0 1.5 6.7 3.0 272.1 250.3 0.00 0.2194458 85.6
2021-06-11 16:20:00 102.5 6.5 25.0 102.5 0.0 4.6 1.9 153.2 31.0 0.00 0.2127579 85.7
2021-06-11 16:25:00 101.8 6.1 23.1 101.8 5.6 8.5 4.2 241.4 87.7 0.00 0.2061729 85.8
2021-06-11 16:30:00 101.6 7.4 27.6 101.6 2.1 5.8 3.5 315.4 233.4 0.00 0.1993527 85.9
2021-06-11 16:35:00 102.3 6.0 23.0 102.3 2.4 5.8 3.3 257.1 233.9 0.00 0.2021660 86.0
2021-06-11 16:40:00 103.7 5.7 22.9 103.7 5.6 5.6 2.6 164.2 152.9 0.00 0.1989594 86.1
2021-06-11 16:45:00 103.6 6.6 26.2 103.6 6.0 7.8 4.5 191.0 190.1 0.00 0.1926678 86.2
2021-06-11 16:50:00 102.7 6.1 23.6 102.7 4.2 9.0 5.2 131.8 178.2 0.00 0.1876414 86.2
2021-06-11 16:55:00 102.0 6.5 24.7 102.0 2.8 6.9 4.6 225.3 208.4 0.00 0.1836370 86.3
2021-06-11 17:00:00 102.0 7.6 28.5 102.0 4.4 4.7 3.4 239.1 248.0 0.00 0.1727933 86.4
2021-06-11 17:05:00 101.6 8.3 30.2 101.6 2.6 8.1 5.1 239.3 229.3 0.00 0.1626130 86.4
2021-06-11 17:10:00 102.0 6.5 24.6 102.0 8.7 9.7 4.9 189.4 214.2 0.00 0.1670825 86.5
2021-06-11 17:15:00 101.8 6.9 25.8 101.8 4.9 6.5 3.8 183.7 210.8 0.00 0.1634325 86.5
2021-06-11 17:20:00 102.3 6.4 24.4 102.3 2.4 6.0 3.5 194.6 187.8 0.00 0.1608378 86.6
2021-06-11 17:25:00 102.9 8.2 31.0 102.9 5.1 7.4 3.9 216.0 202.3 0.00 0.1468960 86.6
2021-06-11 17:30:00 102.0 5.6 21.0 102.0 3.5 6.3 4.5 170.5 209.9 0.00 0.1482925 86.6
2021-06-11 17:35:00 102.0 7.5 28.2 102.0 5.5 6.9 4.7 256.6 238.8 0.00 0.1428131 86.7
2021-06-11 17:40:00 101.5 6.1 22.6 101.5 5.3 9.2 5.4 254.9 232.3 0.00 0.1333475 86.7
2021-06-11 17:45:00 101.4 7.2 26.8 101.4 5.3 6.7 4.7 225.8 232.7 0.00 0.1238637 86.7
2021-06-11 17:50:00 101.0 6.7 24.5 101.0 8.0 9.0 5.7 234.9 243.2 0.00 0.1265673 86.7
2021-06-11 17:55:00 100.8 8.3 29.6 100.8 3.3 6.7 4.4 218.9 227.1 0.00 0.1206111 86.7
2021-06-11 18:00:00 100.9 6.4 23.3 100.9 6.7 6.7 4.0 277.5 236.8 0.00 0.1188245 86.8
2021-06-11 18:05:00 101.1 5.9 21.7 101.1 6.0 8.0 5.3 196.2 230.0 0.00 0.1146373 86.8
2021-06-11 18:10:00 101.5 6.7 25.1 101.5 3.8 6.2 4.7 144.5 195.0 0.00 0.1046709 86.8
2021-06-11 18:15:00 101.4 7.2 26.5 101.4 4.7 7.4 5.4 197.8 192.3 0.00 0.0891721 86.8
2021-06-11 18:20:00 101.0 7.4 27.2 101.0 1.0 6.0 3.9 201.0 207.6 0.00 0.0885595 86.8
2021-06-11 18:25:00 101.0 7.4 27.1 101.0 4.4 4.7 2.8 213.4 216.1 0.00 0.0910131 86.7
2021-06-11 18:30:00 101.1 7.3 26.8 101.1 3.5 4.0 2.4 204.2 221.0 0.00 0.0895609 86.7
2021-06-11 18:35:00 101.0 7.7 28.1 101.0 3.5 6.0 3.0 197.5 203.4 0.00 0.0849043 86.8
2021-06-11 18:40:00 100.2 8.5 29.8 100.2 3.8 6.2 3.9 229.9 221.4 0.00 0.0792247 86.7
2021-06-11 18:45:00 99.9 7.6 26.9 99.9 3.5 6.0 4.2 219.4 233.1 0.00 0.0743396 86.7
2021-06-11 18:50:00 100.0 8.3 28.9 100.0 3.0 5.5 3.8 209.7 230.9 0.00 0.0684447 86.7
2021-06-11 18:55:00 99.8 9.2 31.5 99.8 2.6 5.1 3.2 210.0 219.9 0.00 0.0650746 86.6
2021-06-11 19:00:00 99.7 9.6 32.5 99.7 5.6 6.9 3.5 203.2 206.5 0.00 0.0607113 86.6
2021-06-11 19:05:00 99.3 8.2 28.3 99.3 4.0 6.0 3.9 238.0 221.0 0.00 0.0559439 86.6
2021-06-11 19:10:00 98.8 9.7 32.1 98.8 1.2 4.2 3.1 234.9 227.9 0.00 0.0496364 86.6
2021-06-11 19:15:00 99.0 9.9 32.7 99.0 2.6 3.7 1.2 231.6 228.1 0.00 0.0460434 86.5
2021-06-11 19:20:00 98.6 8.5 28.6 98.6 2.1 3.0 1.6 233.4 232.5 0.00 0.0377283 86.5
2021-06-11 19:25:00 98.0 10.4 33.1 98.0 2.1 2.8 2.3 239.8 237.1 0.00 0.0284527 86.5
2021-06-11 19:30:00 97.5 9.6 30.8 97.5 1.2 2.2 1.4 216.2 224.7 0.00 0.0303639 86.4
2021-06-11 19:35:00 97.1 11.6 35.2 97.1 0.0 2.2 0.7 196.0 198.1 0.00 0.0251618 86.4
2021-06-11 19:40:00 96.5 10.7 32.8 96.5 0.0 2.1 0.4 245.2 229.8 0.00 0.0178059 86.3
2021-06-11 19:45:00 95.1 13.7 37.9 95.1 0.0 0.8 0.0 202.6 234.2 0.00 0.0068091 86.3
2021-06-11 19:50:00 93.7 14.0 37.4 93.7 0.0 0.0 0.0 215.5 0.0 0.00 0.0060508 86.2
2021-06-11 19:55:00 92.8 12.3 33.3 92.8 0.0 2.2 0.7 195.2 224.0 0.00 0.0052842 86.2
2021-06-11 20:00:00 92.0 14.2 36.4 92.0 0.0 0.8 0.0 210.4 222.5 0.00 0.0045317 86.1
2021-06-11 20:05:00 91.5 15.2 37.7 91.5 0.0 0.0 0.0 209.8 0.0 0.00 0.0037307 86.0
2021-06-11 20:10:00 90.8 15.0 36.8 90.8 0.0 0.0 0.0 211.6 0.0 0.00 0.0029115 86.0
2021-06-11 20:15:00 90.2 14.5 35.5 90.2 0.0 0.0 0.0 218.0 0.0 0.00 0.0020803 85.9
2021-06-11 20:20:00 89.6 13.1 32.3 89.6 1.0 2.4 0.6 225.2 226.9 0.00 0.0013096 85.9
2021-06-11 20:25:00 89.4 16.5 38.1 89.4 0.0 0.8 0.1 202.2 222.9 0.00 0.0007870 85.8
2021-06-11 20:30:00 87.9 15.7 35.6 87.9 0.0 0.0 0.0 216.7 0.0 0.00 0.0003652 85.7
2021-06-11 20:35:00 87.2 15.9 35.4 87.2 0.0 0.0 0.0 209.8 0.0 0.00 0.0001534 85.7
2021-06-11 20:40:00 86.4 16.5 35.7 86.4 0.0 0.0 0.0 209.0 0.0 0.00 0.0000605 85.6
2021-06-11 20:45:00 85.3 16.8 35.3 85.3 0.0 0.0 0.0 231.8 0.0 0.00 0.0000605 85.5
2021-06-11 20:50:00 85.2 18.1 37.1 85.2 0.0 0.0 0.0 194.4 0.0 0.00 0.0000605 85.4
2021-06-11 20:55:00 84.9 16.9 35.1 84.9 0.0 0.0 0.0 167.7 0.0 0.00 0.0000161 85.4
2021-06-11 21:00:00 84.4 17.4 35.3 84.4 0.0 0.0 0.0 175.3 0.0 0.00 0.0000020 85.2
2021-06-11 21:05:00 83.9 16.6 33.8 83.9 0.0 0.0 0.0 202.2 0.0 0.00 0.0000000 85.2
2021-06-11 21:10:00 83.5 18.1 35.6 83.5 0.0 0.0 0.0 152.5 0.0 0.00 0.0000000 85.1
2021-06-11 21:15:00 82.6 18.9 36.1 82.6 0.0 0.0 0.0 156.0 0.0 0.00 0.0000000 85.0
2021-06-11 21:20:00 82.3 21.0 38.4 82.3 0.0 0.0 0.0 166.3 0.0 0.00 0.0000000 84.9
2021-06-11 21:25:00 82.3 22.1 39.8 82.3 0.0 0.0 0.0 153.6 0.0 0.00 0.0000000 84.8
2021-06-11 21:30:00 81.8 23.1 40.5 81.8 0.0 0.0 0.0 199.7 0.0 0.00 0.0000000 84.8
2021-06-11 21:35:00 81.2 23.5 40.5 81.2 0.0 0.0 0.0 216.9 0.0 0.00 0.0000000 84.7
2021-06-11 21:40:00 81.2 24.7 41.7 81.2 0.0 0.0 0.0 233.6 0.0 0.00 0.0000040 84.6
2021-06-11 21:45:00 80.8 24.8 41.5 80.8 0.0 0.0 0.0 230.4 0.0 0.00 0.0000000 84.5
2021-06-11 21:50:00 80.5 26.7 43.2 80.5 0.0 0.0 0.0 196.9 0.0 0.00 0.0000061 84.5
2021-06-11 21:55:00 80.5 25.2 41.7 80.5 0.0 0.0 0.0 198.6 0.0 0.00 0.0000242 84.3
2021-06-11 22:00:00 80.1 26.1 42.2 80.1 0.0 0.0 0.0 225.7 0.0 0.00 0.0000343 84.2
2021-06-11 22:05:00 79.6 26.4 42.0 79.6 0.0 0.0 0.0 221.2 0.0 0.00 0.0000343 84.2
2021-06-11 22:10:00 79.2 27.4 42.7 79.2 0.0 0.0 0.0 219.2 0.0 0.00 0.0000545 84.1
2021-06-11 22:15:00 78.5 27.7 42.4 78.5 0.0 0.0 0.0 181.9 0.0 0.00 0.0000485 84.0
2021-06-11 22:20:00 78.4 27.0 41.7 78.4 0.0 0.0 0.0 185.4 0.0 0.00 0.0000303 83.9
2021-06-11 22:25:00 78.7 26.9 41.8 78.7 0.0 0.0 0.0 198.8 0.0 0.00 0.0000121 83.8
2021-06-11 22:30:00 78.6 27.2 42.1 78.6 0.0 0.0 0.0 164.4 0.0 0.00 0.0000040 83.8
2021-06-11 22:35:00 78.5 27.3 42.1 78.5 0.0 0.0 0.0 190.6 0.0 0.00 0.0000061 83.7
2021-06-11 22:40:00 77.6 27.0 40.9 77.6 1.5 1.9 0.3 175.2 160.1 0.00 0.0000000 83.6
2021-06-11 22:45:00 78.0 26.3 40.6 78.0 0.0 1.3 0.3 181.8 161.3 0.00 0.0000000 83.5
2021-06-11 22:50:00 77.7 25.2 39.3 77.7 0.0 0.0 0.0 215.3 0.0 0.00 0.0000000 83.4
2021-06-11 22:55:00 77.3 25.3 39.1 77.3 0.0 0.0 0.0 195.8 0.0 0.00 0.0000000 83.4
2021-06-11 23:00:00 77.2 23.9 37.5 77.2 0.0 0.0 0.0 190.2 0.0 0.00 0.0000000 83.3
2021-06-11 23:05:00 76.5 25.9 38.9 76.5 0.0 0.0 0.0 178.7 0.0 0.00 0.0000000 83.2
2021-06-11 23:10:00 76.0 24.0 36.6 76.0 0.0 0.0 0.0 131.9 0.0 0.00 0.0000000 83.1
2021-06-11 23:15:00 75.7 23.2 35.5 75.7 0.0 0.0 0.0 207.5 0.0 0.00 0.0000000 83.0
2021-06-11 23:20:00 75.9 25.1 37.7 75.9 0.0 0.0 0.0 192.5 0.0 0.00 0.0000000 83.0
2021-06-11 23:25:00 76.0 23.5 36.1 76.0 0.0 0.0 0.0 191.4 0.0 0.00 0.0000000 82.9
2021-06-11 23:30:00 75.6 23.9 36.2 75.6 0.0 0.0 0.0 202.5 0.0 0.00 0.0000000 82.8
2021-06-11 23:35:00 75.5 24.9 37.1 75.5 0.0 0.0 0.0 206.3 0.0 0.00 0.0000000 82.7
2021-06-11 23:40:00 74.8 22.9 34.4 74.8 0.0 0.0 0.0 191.8 0.0 0.00 0.0000000 82.7
2021-06-11 23:45:00 74.9 24.0 35.7 74.9 0.0 0.0 0.0 167.3 0.0 0.00 0.0000000 82.6
2021-06-11 23:50:00 73.9 24.5 35.3 73.9 0.0 0.0 0.0 167.9 0.0 0.00 0.0000000 82.5
2021-06-11 23:55:00 73.8 23.4 34.1 73.8 0.0 0.0 0.0 151.4 0.0 0.00 0.0000000 82.5
2021-06-12 00:00:00 73.5 25.1 35.6 73.5 0.0 0.0 0.0 213.4 0.0 0.00 0.0000000 82.3

Data is courtesy of the NM Climate Center. DO NOT USE IN LEGAL PROCEEDINGS.